sensor_id;sensor_type;location;lat;lon;timestamp;temperature;humidity
11067;DHT22;29763;50.904;5.530;2023-02-01T00:01:45;5.80;99.90
11067;DHT22;29763;50.904;5.530;2023-02-01T00:04:38;5.80;99.90
11067;DHT22;29763;50.904;5.530;2023-02-01T00:07:11;5.80;99.90
11067;DHT22;29763;50.904;5.530;2023-02-01T00:09:37;5.80;99.90
11067;DHT22;29763;50.904;5.530;2023-02-01T00:12:05;5.90;99.90
11067;DHT22;29763;50.904;5.530;2023-02-01T00:14:45;5.90;99.90
11067;DHT22;29763;50.904;5.530;2023-02-01T00:17:20;5.90;99.90
11067;DHT22;29763;50.904;5.530;2023-02-01T00:19:51;5.90;99.90
11067;DHT22;29763;50.904;5.530;2023-02-01T00:25:42;5.90;99.90
11067;DHT22;29763;50.904;5.530;2023-02-01T00:31:26;5.90;99.90
11067;DHT22;29763;50.904;5.530;2023-02-01T00:34:11;5.90;99.90
11067;DHT22;29763;50.904;5.530;2023-02-01T00:36:37;6.00;99.90
11067;DHT22;29763;50.904;5.530;2023-02-01T00:39:05;5.90;99.90
11067;DHT22;29763;50.904;5.530;2023-02-01T00:41:31;6.00;99.90
11067;DHT22;29763;50.904;5.530;2023-02-01T00:44:00;6.00;99.90
11067;DHT22;29763;50.904;5.530;2023-02-01T00:46:28;5.90;99.90
11067;DHT22;29763;50.904;5.530;2023-02-01T00:49:00;6.00;99.90
11067;DHT22;29763;50.904;5.530;2023-02-01T00:51:28;6.00;99.90
11067;DHT22;29763;50.904;5.530;2023-02-01T00:53:54;6.00;99.90
11067;DHT22;29763;50.904;5.530;2023-02-01T00:56:43;6.00;99.90
11067;DHT22;29763;50.904;5.530;2023-02-01T00:59:15;6.00;99.90
11067;DHT22;29763;50.904;5.530;2023-02-01T01:01:50;6.00;99.90
11067;DHT22;29763;50.904;5.530;2023-02-01T01:04:32;6.10;99.90
11067;DHT22;29763;50.904;5.530;2023-02-01T01:07:01;6.10;99.90
11067;DHT22;29763;50.904;5.530;2023-02-01T01:09:36;6.10;99.90
11067;DHT22;29763;50.904;5.530;2023-02-01T01:12:20;6.00;99.90
11067;DHT22;29763;50.904;5.530;2023-02-01T01:14:52;6.00;99.90
11067;DHT22;29763;50.904;5.530;2023-02-01T01:17:19;6.00;99.90
11067;DHT22;29763;50.904;5.530;2023-02-01T01:19:58;6.00;99.90
11067;DHT22;29763;50.904;5.530;2023-02-01T01:22:24;6.00;99.90
11067;DHT22;29763;50.904;5.530;2023-02-01T01:24:50;6.00;99.90
11067;DHT22;29763;50.904;5.530;2023-02-01T01:27:16;6.00;99.90
11067;DHT22;29763;50.904;5.530;2023-02-01T01:29:48;6.00;99.90
11067;DHT22;29763;50.904;5.530;2023-02-01T01:32:20;6.00;99.90
11067;DHT22;29763;50.904;5.530;2023-02-01T01:34:52;6.00;99.90
11067;DHT22;29763;50.904;5.530;2023-02-01T01:37:24;6.10;99.90
11067;DHT22;29763;50.904;5.530;2023-02-01T01:39:50;6.10;99.90
11067;DHT22;29763;50.904;5.530;2023-02-01T01:42:15;6.00;99.90
11067;DHT22;29763;50.904;5.530;2023-02-01T01:47:47;6.00;99.90
11067;DHT22;29763;50.904;5.530;2023-02-01T01:50:21;6.00;99.90
11067;DHT22;29763;50.904;5.530;2023-02-01T01:52:52;6.10;99.90
11067;DHT22;29763;50.904;5.530;2023-02-01T01:55:21;6.00;99.90
11067;DHT22;29763;50.904;5.530;2023-02-01T01:57:55;6.10;99.90
11067;DHT22;29763;50.904;5.530;2023-02-01T02:00:34;6.10;99.90
11067;DHT22;29763;50.904;5.530;2023-02-01T02:03:07;6.10;99.90
11067;DHT22;29763;50.904;5.530;2023-02-01T02:05:36;6.10;99.90
11067;DHT22;29763;50.904;5.530;2023-02-01T02:08:03;6.10;99.90
11067;DHT22;29763;50.904;5.530;2023-02-01T02:10:31;6.00;99.90
11067;DHT22;29763;50.904;5.530;2023-02-01T02:13:17;6.00;99.90
11067;DHT22;29763;50.904;5.530;2023-02-01T02:15:52;6.10;99.90
11067;DHT22;29763;50.904;5.530;2023-02-01T02:27:28;6.10;99.90
11067;DHT22;29763;50.904;5.530;2023-02-01T02:33:17;6.10;99.90
11067;DHT22;29763;50.904;5.530;2023-02-01T02:39:08;6.20;99.90
11067;DHT22;29763;50.904;5.530;2023-02-01T02:42:02;6.20;99.90
11067;DHT22;29763;50.904;5.530;2023-02-01T02:51:55;6.20;99.90
11067;DHT22;29763;50.904;5.530;2023-02-01T02:54:46;6.20;99.90
11067;DHT22;29763;50.904;5.530;2023-02-01T03:00:19;6.20;99.90
11067;DHT22;29763;50.904;5.530;2023-02-01T03:03:04;6.20;99.90
11067;DHT22;29763;50.904;5.530;2023-02-01T03:05:50;6.20;99.90
11067;DHT22;29763;50.904;5.530;2023-02-01T03:08:24;6.20;99.90
11067;DHT22;29763;50.904;5.530;2023-02-01T03:11:06;6.20;99.90
11067;DHT22;29763;50.904;5.530;2023-02-01T03:16:39;6.20;99.90
11067;DHT22;29763;50.904;5.530;2023-02-01T03:19:39;6.20;99.90
11067;DHT22;29763;50.904;5.530;2023-02-01T03:22:14;6.20;99.90
11067;DHT22;29763;50.904;5.530;2023-02-01T03:24:55;6.10;99.90
11067;DHT22;29763;50.904;5.530;2023-02-01T03:27:34;6.00;99.90
11067;DHT22;29763;50.904;5.530;2023-02-01T03:32:50;5.90;99.90
11067;DHT22;29763;50.904;5.530;2023-02-01T03:41:55;5.70;99.90
11067;DHT22;29763;50.904;5.530;2023-02-01T03:44:34;5.70;99.90
11067;DHT22;29763;50.904;5.530;2023-02-01T03:47:11;5.70;99.90
11067;DHT22;29763;50.904;5.530;2023-02-01T03:52:43;5.50;99.90
11067;DHT22;29763;50.904;5.530;2023-02-01T03:55:22;5.50;99.90
11067;DHT22;29763;50.904;5.530;2023-02-01T03:57:59;5.50;99.90
11067;DHT22;29763;50.904;5.530;2023-02-01T04:00:31;5.40;99.90
11067;DHT22;29763;50.904;5.530;2023-02-01T04:02:58;5.40;99.90
11067;DHT22;29763;50.904;5.530;2023-02-01T04:05:43;5.40;99.90
11067;DHT22;29763;50.904;5.530;2023-02-01T04:08:25;5.30;99.90
11067;DHT22;29763;50.904;5.530;2023-02-01T04:10:53;5.40;99.90
11067;DHT22;29763;50.904;5.530;2023-02-01T04:13:19;5.30;99.90
11067;DHT22;29763;50.904;5.530;2023-02-01T04:15:50;5.30;99.90
11067;DHT22;29763;50.904;5.530;2023-02-01T04:18:18;5.20;99.90
11067;DHT22;29763;50.904;5.530;2023-02-01T04:20:50;5.20;99.90
11067;DHT22;29763;50.904;5.530;2023-02-01T04:23:17;5.20;99.90
11067;DHT22;29763;50.904;5.530;2023-02-01T04:25:46;5.10;99.90
11067;DHT22;29763;50.904;5.530;2023-02-01T04:28:14;5.10;99.90
11067;DHT22;29763;50.904;5.530;2023-02-01T04:30:40;5.10;99.90
11067;DHT22;29763;50.904;5.530;2023-02-01T04:33:07;5.10;99.90
11067;DHT22;29763;50.904;5.530;2023-02-01T04:35:33;5.10;99.90
11067;DHT22;29763;50.904;5.530;2023-02-01T04:38:00;5.10;99.90
11067;DHT22;29763;50.904;5.530;2023-02-01T04:40:26;5.10;99.90
11067;DHT22;29763;50.904;5.530;2023-02-01T04:42:55;5.20;99.90
11067;DHT22;29763;50.904;5.530;2023-02-01T04:45:47;5.30;99.90
11067;DHT22;29763;50.904;5.530;2023-02-01T04:48:18;5.30;99.90
11067;DHT22;29763;50.904;5.530;2023-02-01T04:50:50;5.30;99.90
11067;DHT22;29763;50.904;5.530;2023-02-01T04:53:36;5.20;99.90
11067;DHT22;29763;50.904;5.530;2023-02-01T04:56:18;5.10;99.90
11067;DHT22;29763;50.904;5.530;2023-02-01T04:59:04;5.10;99.90
11067;DHT22;29763;50.904;5.530;2023-02-01T05:01:35;5.10;99.90
11067;DHT22;29763;50.904;5.530;2023-02-01T05:04:09;5.10;99.90
11067;DHT22;29763;50.904;5.530;2023-02-01T05:06:35;5.10;99.90
11067;DHT22;29763;50.904;5.530;2023-02-01T05:09:05;5.00;99.90
11067;DHT22;29763;50.904;5.530;2023-02-01T05:11:31;5.00;99.90
11067;DHT22;29763;50.904;5.530;2023-02-01T05:14:15;5.00;99.90
11067;DHT22;29763;50.904;5.530;2023-02-01T05:16:56;5.00;99.90
11067;DHT22;29763;50.904;5.530;2023-02-01T05:19:21;4.90;99.90
11067;DHT22;29763;50.904;5.530;2023-02-01T05:21:54;4.90;99.90
11067;DHT22;29763;50.904;5.530;2023-02-01T05:24:26;4.90;99.90
11067;DHT22;29763;50.904;5.530;2023-02-01T05:27:05;4.80;99.90
11067;DHT22;29763;50.904;5.530;2023-02-01T05:29:34;4.80;99.90
11067;DHT22;29763;50.904;5.530;2023-02-01T05:32:01;4.80;99.90
11067;DHT22;29763;50.904;5.530;2023-02-01T05:34:37;4.80;99.90
11067;DHT22;29763;50.904;5.530;2023-02-01T05:37:19;4.90;99.90
11067;DHT22;29763;50.904;5.530;2023-02-01T05:39:56;4.80;99.90
11067;DHT22;29763;50.904;5.530;2023-02-01T05:42:28;4.80;99.90
11067;DHT22;29763;50.904;5.530;2023-02-01T05:45:29;4.80;99.90
11067;DHT22;29763;50.904;5.530;2023-02-01T05:48:12;4.80;99.90
11067;DHT22;29763;50.904;5.530;2023-02-01T05:50:38;4.70;99.90
11067;DHT22;29763;50.904;5.530;2023-02-01T05:53:05;4.70;99.90
11067;DHT22;29763;50.904;5.530;2023-02-01T05:55:32;4.70;99.90
11067;DHT22;29763;50.904;5.530;2023-02-01T05:58:11;4.70;99.90
11067;DHT22;29763;50.904;5.530;2023-02-01T06:01:07;4.70;99.90
11067;DHT22;29763;50.904;5.530;2023-02-01T06:03:43;4.70;99.90
11067;DHT22;29763;50.904;5.530;2023-02-01T06:06:24;4.70;99.90
11067;DHT22;29763;50.904;5.530;2023-02-01T06:09:13;4.60;99.90
11067;DHT22;29763;50.904;5.530;2023-02-01T06:12:09;4.50;99.90
11067;DHT22;29763;50.904;5.530;2023-02-01T06:14:52;4.50;99.90
11067;DHT22;29763;50.904;5.530;2023-02-01T06:17:27;4.60;99.90
11067;DHT22;29763;50.904;5.530;2023-02-01T06:20:05;4.50;99.90
11067;DHT22;29763;50.904;5.530;2023-02-01T06:22:39;4.50;99.90
11067;DHT22;29763;50.904;5.530;2023-02-01T06:25:12;4.40;99.90
11067;DHT22;29763;50.904;5.530;2023-02-01T06:27:38;4.40;99.90
11067;DHT22;29763;50.904;5.530;2023-02-01T06:30:08;4.30;99.90
11067;DHT22;29763;50.904;5.530;2023-02-01T06:32:34;4.30;99.90
11067;DHT22;29763;50.904;5.530;2023-02-01T06:35:03;4.20;99.90
11067;DHT22;29763;50.904;5.530;2023-02-01T06:37:30;4.20;99.90
11067;DHT22;29763;50.904;5.530;2023-02-01T06:40:00;4.20;99.90
11067;DHT22;29763;50.904;5.530;2023-02-01T06:42:31;4.20;99.90
11067;DHT22;29763;50.904;5.530;2023-02-01T06:44:59;4.10;99.90
11067;DHT22;29763;50.904;5.530;2023-02-01T06:47:37;4.20;99.90
11067;DHT22;29763;50.904;5.530;2023-02-01T06:50:03;4.20;99.90
11067;DHT22;29763;50.904;5.530;2023-02-01T06:52:35;4.20;99.90
11067;DHT22;29763;50.904;5.530;2023-02-01T06:55:11;4.10;99.90
11067;DHT22;29763;50.904;5.530;2023-02-01T06:57:46;4.10;99.90
11067;DHT22;29763;50.904;5.530;2023-02-01T07:00:15;4.10;99.90
11067;DHT22;29763;50.904;5.530;2023-02-01T07:02:43;4.20;99.90
11067;DHT22;29763;50.904;5.530;2023-02-01T07:05:20;4.40;99.90
11067;DHT22;29763;50.904;5.530;2023-02-01T07:11:10;4.30;99.90
11067;DHT22;29763;50.904;5.530;2023-02-01T07:13:47;4.20;99.90
11067;DHT22;29763;50.904;5.530;2023-02-01T07:16:18;4.10;99.90
11067;DHT22;29763;50.904;5.530;2023-02-01T07:18:46;4.00;99.90
11067;DHT22;29763;50.904;5.530;2023-02-01T07:21:14;4.00;99.90
11067;DHT22;29763;50.904;5.530;2023-02-01T07:23:41;4.00;99.90
11067;DHT22;29763;50.904;5.530;2023-02-01T07:26:23;4.00;99.90
11067;DHT22;29763;50.904;5.530;2023-02-01T07:28:49;4.00;99.90
11067;DHT22;29763;50.904;5.530;2023-02-01T07:31:18;4.00;99.90
11067;DHT22;29763;50.904;5.530;2023-02-01T07:33:46;3.90;99.90
11067;DHT22;29763;50.904;5.530;2023-02-01T07:36:17;3.90;99.90
11067;DHT22;29763;50.904;5.530;2023-02-01T07:38:42;4.00;99.90
11067;DHT22;29763;50.904;5.530;2023-02-01T07:41:09;3.90;99.90
11067;DHT22;29763;50.904;5.530;2023-02-01T07:43:35;3.90;99.90
11067;DHT22;29763;50.904;5.530;2023-02-01T07:46:03;3.90;99.90
11067;DHT22;29763;50.904;5.530;2023-02-01T07:48:30;3.90;99.90
11067;DHT22;29763;50.904;5.530;2023-02-01T07:51:25;3.90;99.90
11067;DHT22;29763;50.904;5.530;2023-02-01T07:53:52;3.90;99.90
11067;DHT22;29763;50.904;5.530;2023-02-01T07:56:19;3.90;99.90
11067;DHT22;29763;50.904;5.530;2023-02-01T07:58:52;3.90;99.90
11067;DHT22;29763;50.904;5.530;2023-02-01T08:01:30;4.00;99.90
11067;DHT22;29763;50.904;5.530;2023-02-01T08:03:58;4.00;99.90
11067;DHT22;29763;50.904;5.530;2023-02-01T08:06:31;4.00;99.90
11067;DHT22;29763;50.904;5.530;2023-02-01T08:08:58;4.10;99.90
11067;DHT22;29763;50.904;5.530;2023-02-01T08:11:25;4.10;99.90
11067;DHT22;29763;50.904;5.530;2023-02-01T08:13:51;4.10;99.90
11067;DHT22;29763;50.904;5.530;2023-02-01T08:16:21;4.10;99.90
11067;DHT22;29763;50.904;5.530;2023-02-01T08:18:47;4.20;99.90
11067;DHT22;29763;50.904;5.530;2023-02-01T08:21:16;4.20;99.90
11067;DHT22;29763;50.904;5.530;2023-02-01T08:23:44;4.30;99.90
11067;DHT22;29763;50.904;5.530;2023-02-01T08:26:12;4.30;99.90
11067;DHT22;29763;50.904;5.530;2023-02-01T08:28:40;4.40;99.90
11067;DHT22;29763;50.904;5.530;2023-02-01T08:31:09;4.50;99.90
11067;DHT22;29763;50.904;5.530;2023-02-01T08:33:35;4.60;99.90
11067;DHT22;29763;50.904;5.530;2023-02-01T08:36:04;4.70;99.90
11067;DHT22;29763;50.904;5.530;2023-02-01T08:38:31;4.80;99.90
11067;DHT22;29763;50.904;5.530;2023-02-01T08:40:57;4.90;99.90
11067;DHT22;29763;50.904;5.530;2023-02-01T08:43:26;5.00;99.90
11067;DHT22;29763;50.904;5.530;2023-02-01T08:45:54;5.10;99.90
11067;DHT22;29763;50.904;5.530;2023-02-01T08:48:21;5.20;99.90
11067;DHT22;29763;50.904;5.530;2023-02-01T08:50:47;5.20;99.90
11067;DHT22;29763;50.904;5.530;2023-02-01T08:53:13;5.30;99.90
11067;DHT22;29763;50.904;5.530;2023-02-01T08:55:39;5.30;99.90
11067;DHT22;29763;50.904;5.530;2023-02-01T08:58:05;5.40;99.90
11067;DHT22;29763;50.904;5.530;2023-02-01T09:00:31;5.50;99.90
11067;DHT22;29763;50.904;5.530;2023-02-01T09:02:56;5.60;99.90
11067;DHT22;29763;50.904;5.530;2023-02-01T09:05:24;5.70;99.90
11067;DHT22;29763;50.904;5.530;2023-02-01T09:07:53;5.60;99.90
11067;DHT22;29763;50.904;5.530;2023-02-01T09:10:19;5.60;99.90
11067;DHT22;29763;50.904;5.530;2023-02-01T09:12:45;5.60;99.90
11067;DHT22;29763;50.904;5.530;2023-02-01T09:15:10;5.70;99.90
11067;DHT22;29763;50.904;5.530;2023-02-01T09:17:39;5.70;99.90
11067;DHT22;29763;50.904;5.530;2023-02-01T09:20:09;5.70;99.90
11067;DHT22;29763;50.904;5.530;2023-02-01T09:22:35;5.80;99.90
11067;DHT22;29763;50.904;5.530;2023-02-01T09:25:01;5.80;99.90
11067;DHT22;29763;50.904;5.530;2023-02-01T09:27:27;5.80;99.90
11067;DHT22;29763;50.904;5.530;2023-02-01T09:29:54;5.80;99.90
11067;DHT22;29763;50.904;5.530;2023-02-01T09:32:23;5.80;99.90
11067;DHT22;29763;50.904;5.530;2023-02-01T09:34:50;5.90;99.90
11067;DHT22;29763;50.904;5.530;2023-02-01T09:37:17;5.90;99.90
11067;DHT22;29763;50.904;5.530;2023-02-01T09:39:43;5.90;99.90
11067;DHT22;29763;50.904;5.530;2023-02-01T09:48:39;6.00;99.90
11067;DHT22;29763;50.904;5.530;2023-02-01T09:51:19;6.00;99.90
11067;DHT22;29763;50.904;5.530;2023-02-01T09:54:00;6.00;99.90
11067;DHT22;29763;50.904;5.530;2023-02-01T09:56:35;6.00;99.90
11067;DHT22;29763;50.904;5.530;2023-02-01T10:01:42;6.10;99.90
11067;DHT22;29763;50.904;5.530;2023-02-01T10:04:11;6.20;99.90
11067;DHT22;29763;50.904;5.530;2023-02-01T10:06:41;6.30;99.90
11067;DHT22;29763;50.904;5.530;2023-02-01T10:20:31;6.60;99.90
11067;DHT22;29763;50.904;5.530;2023-02-01T10:26:02;6.70;99.90
11067;DHT22;29763;50.904;5.530;2023-02-01T10:28:32;6.70;99.90
11067;DHT22;29763;50.904;5.530;2023-02-01T10:31:01;6.80;99.90
11067;DHT22;29763;50.904;5.530;2023-02-01T10:33:50;6.80;99.90
11067;DHT22;29763;50.904;5.530;2023-02-01T10:36:21;6.90;99.90
11067;DHT22;29763;50.904;5.530;2023-02-01T10:38:48;7.00;99.90
11067;DHT22;29763;50.904;5.530;2023-02-01T10:41:16;7.10;99.90
11067;DHT22;29763;50.904;5.530;2023-02-01T10:43:44;7.30;99.90
11067;DHT22;29763;50.904;5.530;2023-02-01T10:46:11;7.40;99.90
11067;DHT22;29763;50.904;5.530;2023-02-01T10:48:37;7.50;99.90
11067;DHT22;29763;50.904;5.530;2023-02-01T10:54:03;7.70;99.90
11067;DHT22;29763;50.904;5.530;2023-02-01T10:56:30;7.80;99.90
11067;DHT22;29763;50.904;5.530;2023-02-01T10:59:06;7.90;99.90
11067;DHT22;29763;50.904;5.530;2023-02-01T11:01:41;8.00;99.90
11067;DHT22;29763;50.904;5.530;2023-02-01T11:04:15;8.20;99.90
11067;DHT22;29763;50.904;5.530;2023-02-01T11:06:45;8.30;99.90
11067;DHT22;29763;50.904;5.530;2023-02-01T11:09:32;8.50;99.90
11067;DHT22;29763;50.904;5.530;2023-02-01T11:12:23;8.80;99.90
11067;DHT22;29763;50.904;5.530;2023-02-01T11:14:58;9.00;99.90
11067;DHT22;29763;50.904;5.530;2023-02-01T11:17:38;9.20;99.90
11067;DHT22;29763;50.904;5.530;2023-02-01T11:23:02;9.40;99.90
11067;DHT22;29763;50.904;5.530;2023-02-01T11:25:36;9.60;99.90
11067;DHT22;29763;50.904;5.530;2023-02-01T11:28:05;10.00;99.90
11067;DHT22;29763;50.904;5.530;2023-02-01T11:30:38;10.10;99.90
11067;DHT22;29763;50.904;5.530;2023-02-01T11:33:09;10.00;99.90
11067;DHT22;29763;50.904;5.530;2023-02-01T11:35:38;9.90;99.90
11067;DHT22;29763;50.904;5.530;2023-02-01T11:38:15;9.80;99.90
11067;DHT22;29763;50.904;5.530;2023-02-01T11:40:43;9.80;99.90
11067;DHT22;29763;50.904;5.530;2023-02-01T11:43:25;9.80;99.90
11067;DHT22;29763;50.904;5.530;2023-02-01T11:46:00;9.70;99.90
11067;DHT22;29763;50.904;5.530;2023-02-01T11:48:28;9.50;99.90
11067;DHT22;29763;50.904;5.530;2023-02-01T11:51:23;9.40;99.90
11067;DHT22;29763;50.904;5.530;2023-02-01T11:56:27;9.30;99.90
11067;DHT22;29763;50.904;5.530;2023-02-01T12:11:14;9.80;99.90
11067;DHT22;29763;50.904;5.530;2023-02-01T12:16:43;9.40;99.90
11067;DHT22;29763;50.904;5.530;2023-02-01T12:28:21;8.90;99.90
11067;DHT22;29763;50.904;5.530;2023-02-01T12:33:46;8.80;99.90
11067;DHT22;29763;50.904;5.530;2023-02-01T12:36:16;8.80;99.90
11067;DHT22;29763;50.904;5.530;2023-02-01T12:44:31;8.80;99.90
11067;DHT22;29763;50.904;5.530;2023-02-01T12:47:35;8.60;99.90
11067;DHT22;29763;50.904;5.530;2023-02-01T12:52:47;8.60;99.90
11067;DHT22;29763;50.904;5.530;2023-02-01T12:56:06;8.50;99.90
11067;DHT22;29763;50.904;5.530;2023-02-01T13:01:13;8.40;99.90
11067;DHT22;29763;50.904;5.530;2023-02-01T13:03:54;8.30;99.90
11067;DHT22;29763;50.904;5.530;2023-02-01T13:06:28;8.30;99.90
11067;DHT22;29763;50.904;5.530;2023-02-01T13:09:29;8.30;99.90
11067;DHT22;29763;50.904;5.530;2023-02-01T13:12:12;8.30;99.90
11067;DHT22;29763;50.904;5.530;2023-02-01T13:14:51;8.30;99.90
11067;DHT22;29763;50.904;5.530;2023-02-01T13:17:25;8.20;99.90
11067;DHT22;29763;50.904;5.530;2023-02-01T13:23:08;8.20;99.90
11067;DHT22;29763;50.904;5.530;2023-02-01T13:25:50;8.20;99.90
11067;DHT22;29763;50.904;5.530;2023-02-01T13:28:19;8.20;99.90
11067;DHT22;29763;50.904;5.530;2023-02-01T13:42:11;8.30;99.90
11067;DHT22;29763;50.904;5.530;2023-02-01T13:44:59;8.30;99.90
11067;DHT22;29763;50.904;5.530;2023-02-01T13:50:01;8.30;99.90
11067;DHT22;29763;50.904;5.530;2023-02-01T13:55:25;8.30;99.90
11067;DHT22;29763;50.904;5.530;2023-02-01T13:58:00;8.30;99.90
11067;DHT22;29763;50.904;5.530;2023-02-01T14:00:38;8.40;99.90
11067;DHT22;29763;50.904;5.530;2023-02-01T14:03:21;8.30;99.90
11067;DHT22;29763;50.904;5.530;2023-02-01T14:08:38;8.40;99.90
11067;DHT22;29763;50.904;5.530;2023-02-01T14:11:04;8.40;99.90
11067;DHT22;29763;50.904;5.530;2023-02-01T14:13:50;8.40;99.90
11067;DHT22;29763;50.904;5.530;2023-02-01T14:16:16;8.50;99.90
11067;DHT22;29763;50.904;5.530;2023-02-01T14:29:31;8.50;99.90
11067;DHT22;29763;50.904;5.530;2023-02-01T14:32:16;8.50;99.90
11067;DHT22;29763;50.904;5.530;2023-02-01T14:34:51;8.50;99.90
11067;DHT22;29763;50.904;5.530;2023-02-01T14:40:23;8.60;99.90
11067;DHT22;29763;50.904;5.530;2023-02-01T14:43:03;8.60;99.90
11067;DHT22;29763;50.904;5.530;2023-02-01T14:53:35;8.60;99.90
11067;DHT22;29763;50.904;5.530;2023-02-01T14:56:12;8.60;99.90
11067;DHT22;29763;50.904;5.530;2023-02-01T14:59:13;8.60;99.90
11067;DHT22;29763;50.904;5.530;2023-02-01T15:01:57;8.60;99.90
11067;DHT22;29763;50.904;5.530;2023-02-01T15:04:27;8.60;99.90
11067;DHT22;29763;50.904;5.530;2023-02-01T15:07:11;8.60;99.90
11067;DHT22;29763;50.904;5.530;2023-02-01T15:09:44;8.50;99.90
11067;DHT22;29763;50.904;5.530;2023-02-01T15:12:32;8.50;99.90
11067;DHT22;29763;50.904;5.530;2023-02-01T15:17:49;8.40;99.90
11067;DHT22;29763;50.904;5.530;2023-02-01T15:20:22;8.30;99.90
11067;DHT22;29763;50.904;5.530;2023-02-01T15:23:01;8.30;99.90
11067;DHT22;29763;50.904;5.530;2023-02-01T15:28:25;8.20;99.90
11067;DHT22;29763;50.904;5.530;2023-02-01T15:31:03;8.20;99.90
11067;DHT22;29763;50.904;5.530;2023-02-01T15:33:30;8.20;99.90
11067;DHT22;29763;50.904;5.530;2023-02-01T15:36:10;8.20;99.90
11067;DHT22;29763;50.904;5.530;2023-02-01T15:38:40;8.10;99.90
11067;DHT22;29763;50.904;5.530;2023-02-01T15:41:11;8.10;99.90
11067;DHT22;29763;50.904;5.530;2023-02-01T15:44:11;8.00;99.90
11067;DHT22;29763;50.904;5.530;2023-02-01T15:46:44;8.00;99.90
11067;DHT22;29763;50.904;5.530;2023-02-01T15:49:27;8.00;99.90
11067;DHT22;29763;50.904;5.530;2023-02-01T15:52:00;7.90;99.90
11067;DHT22;29763;50.904;5.530;2023-02-01T15:54:59;7.90;99.90
11067;DHT22;29763;50.904;5.530;2023-02-01T15:57:50;7.90;99.90
11067;DHT22;29763;50.904;5.530;2023-02-01T16:00:57;7.90;99.90
11067;DHT22;29763;50.904;5.530;2023-02-01T16:03:43;7.90;99.90
11067;DHT22;29763;50.904;5.530;2023-02-01T16:18:41;7.90;99.90
11067;DHT22;29763;50.904;5.530;2023-02-01T16:21:14;7.90;99.90
11067;DHT22;29763;50.904;5.530;2023-02-01T16:26:55;7.90;99.90
11067;DHT22;29763;50.904;5.530;2023-02-01T16:32:36;7.80;99.90
11067;DHT22;29763;50.904;5.530;2023-02-01T16:35:26;7.70;99.90
11067;DHT22;29763;50.904;5.530;2023-02-01T16:38:18;7.80;99.90
11067;DHT22;29763;50.904;5.530;2023-02-01T16:40:55;7.80;99.90
11067;DHT22;29763;50.904;5.530;2023-02-01T16:43:37;7.80;99.90
11067;DHT22;29763;50.904;5.530;2023-02-01T16:46:17;7.70;99.90
11067;DHT22;29763;50.904;5.530;2023-02-01T16:48:56;7.70;99.90
11067;DHT22;29763;50.904;5.530;2023-02-01T16:51:25;7.70;99.90
11067;DHT22;29763;50.904;5.530;2023-02-01T16:53:55;7.80;99.90
11067;DHT22;29763;50.904;5.530;2023-02-01T16:56:31;7.80;99.90
11067;DHT22;29763;50.904;5.530;2023-02-01T16:58:57;7.80;99.90
11067;DHT22;29763;50.904;5.530;2023-02-01T17:01:23;7.70;99.90
11067;DHT22;29763;50.904;5.530;2023-02-01T17:03:54;7.70;99.90
11067;DHT22;29763;50.904;5.530;2023-02-01T17:06:23;7.70;99.90
11067;DHT22;29763;50.904;5.530;2023-02-01T17:08:52;7.70;99.90
11067;DHT22;29763;50.904;5.530;2023-02-01T17:11:22;7.60;99.90
11067;DHT22;29763;50.904;5.530;2023-02-01T17:13:48;7.60;99.90
11067;DHT22;29763;50.904;5.530;2023-02-01T17:16:24;7.60;99.90
11067;DHT22;29763;50.904;5.530;2023-02-01T17:19:03;7.60;99.90
11067;DHT22;29763;50.904;5.530;2023-02-01T17:21:40;7.60;99.90
11067;DHT22;29763;50.904;5.530;2023-02-01T17:24:16;7.70;99.90
11067;DHT22;29763;50.904;5.530;2023-02-01T17:26:43;7.60;99.90
11067;DHT22;29763;50.904;5.530;2023-02-01T17:31:51;7.60;99.90
11067;DHT22;29763;50.904;5.530;2023-02-01T17:34:18;7.60;99.90
11067;DHT22;29763;50.904;5.530;2023-02-01T17:36:45;7.60;99.90
11067;DHT22;29763;50.904;5.530;2023-02-01T17:39:13;7.60;99.90
11067;DHT22;29763;50.904;5.530;2023-02-01T17:42:00;7.60;99.90
11067;DHT22;29763;50.904;5.530;2023-02-01T17:44:26;7.60;99.90
11067;DHT22;29763;50.904;5.530;2023-02-01T17:46:56;7.60;99.90
11067;DHT22;29763;50.904;5.530;2023-02-01T17:49:24;7.60;99.90
11067;DHT22;29763;50.904;5.530;2023-02-01T17:51:58;7.60;99.90
11067;DHT22;29763;50.904;5.530;2023-02-01T17:54:26;7.60;99.90
11067;DHT22;29763;50.904;5.530;2023-02-01T17:56:52;7.60;99.90
11067;DHT22;29763;50.904;5.530;2023-02-01T17:59:18;7.60;99.90
11067;DHT22;29763;50.904;5.530;2023-02-01T18:01:44;7.60;99.90
11067;DHT22;29763;50.904;5.530;2023-02-01T18:04:18;7.50;99.90
11067;DHT22;29763;50.904;5.530;2023-02-01T18:06:46;7.60;99.90
11067;DHT22;29763;50.904;5.530;2023-02-01T18:09:22;7.50;99.90
11067;DHT22;29763;50.904;5.530;2023-02-01T18:11:47;7.50;99.90
11067;DHT22;29763;50.904;5.530;2023-02-01T18:14:14;7.50;99.90
11067;DHT22;29763;50.904;5.530;2023-02-01T18:16:40;7.50;99.90
11067;DHT22;29763;50.904;5.530;2023-02-01T18:19:07;7.60;99.90
11067;DHT22;29763;50.904;5.530;2023-02-01T18:21:42;7.60;99.90
11067;DHT22;29763;50.904;5.530;2023-02-01T18:24:13;7.60;99.90
11067;DHT22;29763;50.904;5.530;2023-02-01T18:26:42;7.60;99.90
11067;DHT22;29763;50.904;5.530;2023-02-01T18:29:08;7.60;99.90
11067;DHT22;29763;50.904;5.530;2023-02-01T18:31:39;7.60;99.90
11067;DHT22;29763;50.904;5.530;2023-02-01T18:34:07;7.60;99.90
11067;DHT22;29763;50.904;5.530;2023-02-01T18:36:34;7.60;99.90
11067;DHT22;29763;50.904;5.530;2023-02-01T18:38:59;7.60;99.90
11067;DHT22;29763;50.904;5.530;2023-02-01T18:41:27;7.60;99.90
11067;DHT22;29763;50.904;5.530;2023-02-01T18:43:55;7.60;99.90
11067;DHT22;29763;50.904;5.530;2023-02-01T18:46:21;7.60;99.90
11067;DHT22;29763;50.904;5.530;2023-02-01T18:48:47;7.60;99.90
11067;DHT22;29763;50.904;5.530;2023-02-01T18:51:19;7.60;99.90
11067;DHT22;29763;50.904;5.530;2023-02-01T18:53:50;7.60;99.90
11067;DHT22;29763;50.904;5.530;2023-02-01T18:56:18;7.60;99.90
11067;DHT22;29763;50.904;5.530;2023-02-01T18:58:44;7.60;99.90
11067;DHT22;29763;50.904;5.530;2023-02-01T19:01:18;7.60;99.90
11067;DHT22;29763;50.904;5.530;2023-02-01T19:03:50;7.60;99.90
11067;DHT22;29763;50.904;5.530;2023-02-01T19:06:15;7.70;99.90
11067;DHT22;29763;50.904;5.530;2023-02-01T19:08:44;7.70;99.90
11067;DHT22;29763;50.904;5.530;2023-02-01T19:11:10;7.80;99.90
11067;DHT22;29763;50.904;5.530;2023-02-01T19:13:37;7.80;99.90
11067;DHT22;29763;50.904;5.530;2023-02-01T19:16:12;7.80;99.90
11067;DHT22;29763;50.904;5.530;2023-02-01T19:18:38;7.80;99.90
11067;DHT22;29763;50.904;5.530;2023-02-01T19:21:07;7.80;99.90
11067;DHT22;29763;50.904;5.530;2023-02-01T19:23:32;7.80;99.90
11067;DHT22;29763;50.904;5.530;2023-02-01T19:25:58;7.80;99.90
11067;DHT22;29763;50.904;5.530;2023-02-01T19:28:24;7.80;99.90
11067;DHT22;29763;50.904;5.530;2023-02-01T19:30:59;7.80;99.90
11067;DHT22;29763;50.904;5.530;2023-02-01T19:33:25;7.80;99.90
11067;DHT22;29763;50.904;5.530;2023-02-01T19:36:00;7.70;99.90
11067;DHT22;29763;50.904;5.530;2023-02-01T19:38:29;7.70;99.90